sensor_id;sensor_type;location;lat;lon;timestamp;temperature;humidity
27848;DHT22;15212;48.830;8.730;2023-06-22T00:01:04;19.50;99.90
27848;DHT22;15212;48.830;8.730;2023-06-22T00:03:32;19.50;99.90
27848;DHT22;15212;48.830;8.730;2023-06-22T00:06:01;19.50;99.90
27848;DHT22;15212;48.830;8.730;2023-06-22T00:08:29;19.60;99.90
27848;DHT22;15212;48.830;8.730;2023-06-22T00:10:58;19.70;99.90
27848;DHT22;15212;48.830;8.730;2023-06-22T00:13:26;19.70;99.90
27848;DHT22;15212;48.830;8.730;2023-06-22T00:15:54;19.70;99.90
27848;DHT22;15212;48.830;8.730;2023-06-22T00:18:23;19.70;99.90
27848;DHT22;15212;48.830;8.730;2023-06-22T00:20:54;19.70;99.90
27848;DHT22;15212;48.830;8.730;2023-06-22T00:23:25;19.70;99.90
27848;DHT22;15212;48.830;8.730;2023-06-22T00:25:54;19.70;99.90
27848;DHT22;15212;48.830;8.730;2023-06-22T00:28:22;19.70;99.90
27848;DHT22;15212;48.830;8.730;2023-06-22T00:30:50;19.70;99.90
27848;DHT22;15212;48.830;8.730;2023-06-22T00:33:19;19.60;99.90
27848;DHT22;15212;48.830;8.730;2023-06-22T00:35:47;19.60;99.90
27848;DHT22;15212;48.830;8.730;2023-06-22T00:38:17;19.60;99.90
27848;DHT22;15212;48.830;8.730;2023-06-22T00:40:46;19.70;99.90
27848;DHT22;15212;48.830;8.730;2023-06-22T00:43:14;19.70;99.90
27848;DHT22;15212;48.830;8.730;2023-06-22T00:45:43;19.80;99.90
27848;DHT22;15212;48.830;8.730;2023-06-22T00:48:12;19.80;99.90
27848;DHT22;15212;48.830;8.730;2023-06-22T00:50:41;19.80;99.90
27848;DHT22;15212;48.830;8.730;2023-06-22T00:53:10;19.70;99.90
27848;DHT22;15212;48.830;8.730;2023-06-22T00:55:41;19.70;99.90
27848;DHT22;15212;48.830;8.730;2023-06-22T00:58:12;19.60;99.90
27848;DHT22;15212;48.830;8.730;2023-06-22T01:00:41;19.50;99.90
27848;DHT22;15212;48.830;8.730;2023-06-22T01:03:10;19.40;99.90
27848;DHT22;15212;48.830;8.730;2023-06-22T01:05:39;19.40;99.90
27848;DHT22;15212;48.830;8.730;2023-06-22T01:11:09;19.40;99.90
27848;DHT22;15212;48.830;8.730;2023-06-22T01:16:35;19.40;99.90
27848;DHT22;15212;48.830;8.730;2023-06-22T01:19:20;19.40;99.90
27848;DHT22;15212;48.830;8.730;2023-06-22T01:21:38;19.30;99.90
27848;DHT22;15212;48.830;8.730;2023-06-22T01:26:59;19.30;99.90
27848;DHT22;15212;48.830;8.730;2023-06-22T01:29:35;19.30;99.90
27848;DHT22;15212;48.830;8.730;2023-06-22T01:32:06;19.30;99.90
27848;DHT22;15212;48.830;8.730;2023-06-22T01:34:35;19.30;99.90
27848;DHT22;15212;48.830;8.730;2023-06-22T01:37:06;19.20;99.90
27848;DHT22;15212;48.830;8.730;2023-06-22T01:39:35;19.10;99.90
27848;DHT22;15212;48.830;8.730;2023-06-22T01:42:04;19.00;99.90
27848;DHT22;15212;48.830;8.730;2023-06-22T01:44:33;19.00;99.90
27848;DHT22;15212;48.830;8.730;2023-06-22T01:47:02;18.90;99.90
27848;DHT22;15212;48.830;8.730;2023-06-22T01:49:31;18.90;99.90
27848;DHT22;15212;48.830;8.730;2023-06-22T01:51:59;18.80;99.90
27848;DHT22;15212;48.830;8.730;2023-06-22T01:54:28;18.80;99.90
27848;DHT22;15212;48.830;8.730;2023-06-22T01:56:57;18.80;99.90
27848;DHT22;15212;48.830;8.730;2023-06-22T02:02:33;18.90;99.90
27848;DHT22;15212;48.830;8.730;2023-06-22T02:05:08;18.80;99.90
27848;DHT22;15212;48.830;8.730;2023-06-22T02:07:45;18.80;99.90
27848;DHT22;15212;48.830;8.730;2023-06-22T02:10:17;18.70;99.90
27848;DHT22;15212;48.830;8.730;2023-06-22T02:12:48;18.60;99.90
27848;DHT22;15212;48.830;8.730;2023-06-22T02:15:17;18.50;99.90
27848;DHT22;15212;48.830;8.730;2023-06-22T02:17:46;18.50;99.90
27848;DHT22;15212;48.830;8.730;2023-06-22T02:20:15;18.40;99.90
27848;DHT22;15212;48.830;8.730;2023-06-22T02:22:44;18.50;99.90
27848;DHT22;15212;48.830;8.730;2023-06-22T02:25:12;18.50;99.90
27848;DHT22;15212;48.830;8.730;2023-06-22T02:27:41;18.50;99.90
27848;DHT22;15212;48.830;8.730;2023-06-22T02:30:10;18.50;99.90
27848;DHT22;15212;48.830;8.730;2023-06-22T02:32:38;18.50;99.90
27848;DHT22;15212;48.830;8.730;2023-06-22T02:35:09;18.50;99.90
27848;DHT22;15212;48.830;8.730;2023-06-22T02:37:38;18.50;99.90
27848;DHT22;15212;48.830;8.730;2023-06-22T02:40:08;18.60;99.90
27848;DHT22;15212;48.830;8.730;2023-06-22T02:42:39;18.50;99.90
27848;DHT22;15212;48.830;8.730;2023-06-22T02:45:07;18.50;99.90
27848;DHT22;15212;48.830;8.730;2023-06-22T02:47:36;18.50;99.90
27848;DHT22;15212;48.830;8.730;2023-06-22T02:50:05;18.50;99.90
27848;DHT22;15212;48.830;8.730;2023-06-22T02:52:33;18.40;99.90
27848;DHT22;15212;48.830;8.730;2023-06-22T02:55:02;18.40;99.90
27848;DHT22;15212;48.830;8.730;2023-06-22T02:57:30;18.30;99.90
27848;DHT22;15212;48.830;8.730;2023-06-22T02:59:59;18.30;99.90
27848;DHT22;15212;48.830;8.730;2023-06-22T03:02:31;18.20;99.90
27848;DHT22;15212;48.830;8.730;2023-06-22T03:04:59;18.20;99.90
27848;DHT22;15212;48.830;8.730;2023-06-22T03:07:28;18.30;99.90
27848;DHT22;15212;48.830;8.730;2023-06-22T03:09:56;18.30;99.90
27848;DHT22;15212;48.830;8.730;2023-06-22T03:12:25;18.30;99.90
27848;DHT22;15212;48.830;8.730;2023-06-22T03:14:53;18.30;99.90
27848;DHT22;15212;48.830;8.730;2023-06-22T03:17:21;18.30;99.90
27848;DHT22;15212;48.830;8.730;2023-06-22T03:19:50;18.30;99.90
27848;DHT22;15212;48.830;8.730;2023-06-22T03:22:18;18.30;99.90
27848;DHT22;15212;48.830;8.730;2023-06-22T03:24:47;18.20;99.90
27848;DHT22;15212;48.830;8.730;2023-06-22T03:27:15;18.20;99.90
27848;DHT22;15212;48.830;8.730;2023-06-22T03:29:45;18.20;99.90
27848;DHT22;15212;48.830;8.730;2023-06-22T03:32:13;18.20;99.90
27848;DHT22;15212;48.830;8.730;2023-06-22T03:34:41;18.20;99.90
27848;DHT22;15212;48.830;8.730;2023-06-22T03:37:11;18.20;99.90
27848;DHT22;15212;48.830;8.730;2023-06-22T03:39:42;18.20;99.90
27848;DHT22;15212;48.830;8.730;2023-06-22T03:42:10;18.10;99.90
27848;DHT22;15212;48.830;8.730;2023-06-22T03:44:38;18.10;99.90
27848;DHT22;15212;48.830;8.730;2023-06-22T03:47:07;18.00;99.90
27848;DHT22;15212;48.830;8.730;2023-06-22T03:49:36;18.10;99.90
27848;DHT22;15212;48.830;8.730;2023-06-22T03:52:04;18.10;99.90
27848;DHT22;15212;48.830;8.730;2023-06-22T03:54:33;18.10;99.90
27848;DHT22;15212;48.830;8.730;2023-06-22T03:57:01;18.20;99.90
27848;DHT22;15212;48.830;8.730;2023-06-22T03:59:30;18.20;99.90
27848;DHT22;15212;48.830;8.730;2023-06-22T04:01:59;18.20;99.90
27848;DHT22;15212;48.830;8.730;2023-06-22T04:04:27;18.30;99.90
27848;DHT22;15212;48.830;8.730;2023-06-22T04:06:55;18.30;99.90
27848;DHT22;15212;48.830;8.730;2023-06-22T04:09:24;18.30;99.90
27848;DHT22;15212;48.830;8.730;2023-06-22T04:11:52;18.40;99.90
27848;DHT22;15212;48.830;8.730;2023-06-22T04:14:20;18.40;99.90
27848;DHT22;15212;48.830;8.730;2023-06-22T04:16:49;18.50;99.90
27848;DHT22;15212;48.830;8.730;2023-06-22T04:19:17;18.50;99.90
27848;DHT22;15212;48.830;8.730;2023-06-22T04:21:46;18.60;99.90
27848;DHT22;15212;48.830;8.730;2023-06-22T04:24:15;18.60;99.90
27848;DHT22;15212;48.830;8.730;2023-06-22T04:26:43;18.70;99.90
27848;DHT22;15212;48.830;8.730;2023-06-22T04:29:13;18.70;99.90
27848;DHT22;15212;48.830;8.730;2023-06-22T04:31:42;18.70;99.90
27848;DHT22;15212;48.830;8.730;2023-06-22T04:34:10;18.80;99.90
27848;DHT22;15212;48.830;8.730;2023-06-22T04:36:40;18.80;99.90
27848;DHT22;15212;48.830;8.730;2023-06-22T04:39:10;18.90;99.90
27848;DHT22;15212;48.830;8.730;2023-06-22T04:41:40;19.00;99.90
27848;DHT22;15212;48.830;8.730;2023-06-22T04:44:10;19.10;99.90
27848;DHT22;15212;48.830;8.730;2023-06-22T04:46:43;19.10;99.90
27848;DHT22;15212;48.830;8.730;2023-06-22T04:49:11;19.20;99.90
27848;DHT22;15212;48.830;8.730;2023-06-22T04:51:41;19.30;99.90
27848;DHT22;15212;48.830;8.730;2023-06-22T04:54:09;19.40;99.90
27848;DHT22;15212;48.830;8.730;2023-06-22T04:56:38;19.40;99.90
27848;DHT22;15212;48.830;8.730;2023-06-22T04:59:07;19.50;99.90
27848;DHT22;15212;48.830;8.730;2023-06-22T05:01:37;19.60;99.90
27848;DHT22;15212;48.830;8.730;2023-06-22T05:04:06;19.60;99.90
27848;DHT22;15212;48.830;8.730;2023-06-22T05:06:34;19.70;99.90
27848;DHT22;15212;48.830;8.730;2023-06-22T05:09:02;19.70;99.90
27848;DHT22;15212;48.830;8.730;2023-06-22T05:11:32;19.80;99.90
27848;DHT22;15212;48.830;8.730;2023-06-22T05:14:00;19.90;99.90
27848;DHT22;15212;48.830;8.730;2023-06-22T05:16:29;19.90;99.90
27848;DHT22;15212;48.830;8.730;2023-06-22T05:18:57;19.90;99.90
27848;DHT22;15212;48.830;8.730;2023-06-22T05:21:27;20.00;99.90
27848;DHT22;15212;48.830;8.730;2023-06-22T05:23:55;20.00;99.90
27848;DHT22;15212;48.830;8.730;2023-06-22T05:26:30;20.10;99.90
27848;DHT22;15212;48.830;8.730;2023-06-22T05:29:00;20.10;99.90
27848;DHT22;15212;48.830;8.730;2023-06-22T05:31:30;20.20;99.90
27848;DHT22;15212;48.830;8.730;2023-06-22T05:33:58;20.20;99.90
27848;DHT22;15212;48.830;8.730;2023-06-22T05:36:27;20.20;99.90
27848;DHT22;15212;48.830;8.730;2023-06-22T05:38:56;20.30;99.90
27848;DHT22;15212;48.830;8.730;2023-06-22T05:41:25;20.40;99.90
27848;DHT22;15212;48.830;8.730;2023-06-22T05:43:53;20.50;99.90
27848;DHT22;15212;48.830;8.730;2023-06-22T05:46:22;20.50;99.90
27848;DHT22;15212;48.830;8.730;2023-06-22T05:48:50;20.70;99.90
27848;DHT22;15212;48.830;8.730;2023-06-22T05:51:19;20.80;99.90
27848;DHT22;15212;48.830;8.730;2023-06-22T05:53:47;21.00;99.90
27848;DHT22;15212;48.830;8.730;2023-06-22T05:56:17;21.30;99.90
27848;DHT22;15212;48.830;8.730;2023-06-22T05:58:46;21.70;99.90
27848;DHT22;15212;48.830;8.730;2023-06-22T06:01:15;22.20;99.90
27848;DHT22;15212;48.830;8.730;2023-06-22T06:03:43;22.50;99.90
27848;DHT22;15212;48.830;8.730;2023-06-22T06:06:12;22.90;99.90
27848;DHT22;15212;48.830;8.730;2023-06-22T06:08:41;23.40;99.90
27848;DHT22;15212;48.830;8.730;2023-06-22T06:11:09;24.00;99.90
27848;DHT22;15212;48.830;8.730;2023-06-22T06:13:38;24.40;99.90
27848;DHT22;15212;48.830;8.730;2023-06-22T06:16:06;25.00;99.90
27848;DHT22;15212;48.830;8.730;2023-06-22T06:18:34;25.40;99.90
27848;DHT22;15212;48.830;8.730;2023-06-22T06:21:04;25.80;99.90
27848;DHT22;15212;48.830;8.730;2023-06-22T06:23:34;26.10;99.90
27848;DHT22;15212;48.830;8.730;2023-06-22T06:26:02;26.70;99.90
27848;DHT22;15212;48.830;8.730;2023-06-22T06:28:32;27.00;99.90
27848;DHT22;15212;48.830;8.730;2023-06-22T06:31:01;27.10;99.90
27848;DHT22;15212;48.830;8.730;2023-06-22T06:33:29;27.10;99.90
27848;DHT22;15212;48.830;8.730;2023-06-22T06:35:58;27.20;99.90
27848;DHT22;15212;48.830;8.730;2023-06-22T06:38:28;27.50;99.90
27848;DHT22;15212;48.830;8.730;2023-06-22T06:40:57;27.60;99.90
27848;DHT22;15212;48.830;8.730;2023-06-22T06:43:26;27.60;99.90
27848;DHT22;15212;48.830;8.730;2023-06-22T06:45:54;27.70;99.90
27848;DHT22;15212;48.830;8.730;2023-06-22T06:48:23;27.70;99.90
27848;DHT22;15212;48.830;8.730;2023-06-22T06:50:51;27.70;99.90
27848;DHT22;15212;48.830;8.730;2023-06-22T06:53:19;28.00;99.90
27848;DHT22;15212;48.830;8.730;2023-06-22T06:55:48;28.20;99.90
27848;DHT22;15212;48.830;8.730;2023-06-22T06:58:17;28.40;99.90
27848;DHT22;15212;48.830;8.730;2023-06-22T07:00:45;28.60;99.90
27848;DHT22;15212;48.830;8.730;2023-06-22T07:03:14;28.80;99.90
27848;DHT22;15212;48.830;8.730;2023-06-22T07:05:42;28.90;99.90
27848;DHT22;15212;48.830;8.730;2023-06-22T07:08:11;28.90;99.90
27848;DHT22;15212;48.830;8.730;2023-06-22T07:10:39;28.70;99.90
27848;DHT22;15212;48.830;8.730;2023-06-22T07:13:08;28.60;99.90
27848;DHT22;15212;48.830;8.730;2023-06-22T07:15:36;28.70;99.90
27848;DHT22;15212;48.830;8.730;2023-06-22T07:18:05;28.50;99.90
27848;DHT22;15212;48.830;8.730;2023-06-22T07:20:33;28.40;99.90
27848;DHT22;15212;48.830;8.730;2023-06-22T07:23:02;28.40;99.90
27848;DHT22;15212;48.830;8.730;2023-06-22T07:25:30;28.50;99.90
27848;DHT22;15212;48.830;8.730;2023-06-22T07:28:04;28.50;99.90
27848;DHT22;15212;48.830;8.730;2023-06-22T07:30:34;28.40;99.90
27848;DHT22;15212;48.830;8.730;2023-06-22T07:33:03;28.60;99.90
27848;DHT22;15212;48.830;8.730;2023-06-22T07:35:33;28.90;99.90
27848;DHT22;15212;48.830;8.730;2023-06-22T07:38:01;29.30;99.90
27848;DHT22;15212;48.830;8.730;2023-06-22T07:40:30;29.60;99.90
27848;DHT22;15212;48.830;8.730;2023-06-22T07:42:58;29.40;99.90
27848;DHT22;15212;48.830;8.730;2023-06-22T07:45:27;29.30;99.90
27848;DHT22;15212;48.830;8.730;2023-06-22T07:47:55;29.40;99.90
27848;DHT22;15212;48.830;8.730;2023-06-22T07:50:23;29.40;99.90
27848;DHT22;15212;48.830;8.730;2023-06-22T07:52:52;29.60;99.90
27848;DHT22;15212;48.830;8.730;2023-06-22T07:55:20;29.60;99.90
27848;DHT22;15212;48.830;8.730;2023-06-22T07:57:49;29.80;99.90
27848;DHT22;15212;48.830;8.730;2023-06-22T08:00:18;29.80;99.90
27848;DHT22;15212;48.830;8.730;2023-06-22T08:02:47;29.60;99.90
27848;DHT22;15212;48.830;8.730;2023-06-22T08:05:15;29.30;99.90
27848;DHT22;15212;48.830;8.730;2023-06-22T08:07:44;29.00;99.90
27848;DHT22;15212;48.830;8.730;2023-06-22T08:10:13;28.40;99.90
27848;DHT22;15212;48.830;8.730;2023-06-22T08:12:42;27.70;99.90
27848;DHT22;15212;48.830;8.730;2023-06-22T08:15:10;27.20;99.90
27848;DHT22;15212;48.830;8.730;2023-06-22T08:17:39;26.70;99.90
27848;DHT22;15212;48.830;8.730;2023-06-22T08:20:09;26.30;99.90
27848;DHT22;15212;48.830;8.730;2023-06-22T08:22:43;26.00;99.90
27848;DHT22;15212;48.830;8.730;2023-06-22T08:25:12;25.80;99.90
27848;DHT22;15212;48.830;8.730;2023-06-22T08:27:44;25.70;99.90
27848;DHT22;15212;48.830;8.730;2023-06-22T08:30:17;25.50;99.90
27848;DHT22;15212;48.830;8.730;2023-06-22T08:32:46;25.30;99.90
27848;DHT22;15212;48.830;8.730;2023-06-22T08:35:15;25.30;99.90
27848;DHT22;15212;48.830;8.730;2023-06-22T08:37:43;25.20;99.90
27848;DHT22;15212;48.830;8.730;2023-06-22T08:40:13;25.10;99.90
27848;DHT22;15212;48.830;8.730;2023-06-22T08:42:41;24.90;99.90
27848;DHT22;15212;48.830;8.730;2023-06-22T08:45:10;24.80;99.90
27848;DHT22;15212;48.830;8.730;2023-06-22T08:47:40;24.80;99.90
27848;DHT22;15212;48.830;8.730;2023-06-22T08:50:10;24.70;99.90
27848;DHT22;15212;48.830;8.730;2023-06-22T08:52:40;24.70;99.90
27848;DHT22;15212;48.830;8.730;2023-06-22T08:55:09;24.80;99.90
27848;DHT22;15212;48.830;8.730;2023-06-22T08:57:38;24.80;99.90
27848;DHT22;15212;48.830;8.730;2023-06-22T09:00:08;24.80;99.90
27848;DHT22;15212;48.830;8.730;2023-06-22T09:02:38;24.80;99.90
27848;DHT22;15212;48.830;8.730;2023-06-22T09:05:07;25.00;99.90
27848;DHT22;15212;48.830;8.730;2023-06-22T09:07:36;25.40;99.90
27848;DHT22;15212;48.830;8.730;2023-06-22T09:10:04;25.60;99.90
27848;DHT22;15212;48.830;8.730;2023-06-22T09:12:33;25.60;99.90
27848;DHT22;15212;48.830;8.730;2023-06-22T09:15:04;25.50;99.90
27848;DHT22;15212;48.830;8.730;2023-06-22T09:17:34;25.40;99.90
27848;DHT22;15212;48.830;8.730;2023-06-22T09:20:03;25.20;99.90
27848;DHT22;15212;48.830;8.730;2023-06-22T09:22:32;25.30;99.90
27848;DHT22;15212;48.830;8.730;2023-06-22T09:25:01;25.40;99.90
27848;DHT22;15212;48.830;8.730;2023-06-22T09:27:30;25.70;99.90
27848;DHT22;15212;48.830;8.730;2023-06-22T09:29:58;26.00;99.90
27848;DHT22;15212;48.830;8.730;2023-06-22T09:32:26;26.40;99.90
27848;DHT22;15212;48.830;8.730;2023-06-22T09:34:55;26.80;99.90
27848;DHT22;15212;48.830;8.730;2023-06-22T09:37:23;27.10;99.90
27848;DHT22;15212;48.830;8.730;2023-06-22T09:39:51;27.30;99.90
27848;DHT22;15212;48.830;8.730;2023-06-22T09:42:20;27.60;99.90
27848;DHT22;15212;48.830;8.730;2023-06-22T09:44:48;27.90;99.90
27848;DHT22;15212;48.830;8.730;2023-06-22T09:47:17;28.10;99.90
27848;DHT22;15212;48.830;8.730;2023-06-22T09:49:45;28.10;99.90
27848;DHT22;15212;48.830;8.730;2023-06-22T09:52:13;28.10;99.90
27848;DHT22;15212;48.830;8.730;2023-06-22T09:54:42;28.20;99.90
27848;DHT22;15212;48.830;8.730;2023-06-22T09:57:11;28.30;99.90
27848;DHT22;15212;48.830;8.730;2023-06-22T09:59:39;28.40;99.90
27848;DHT22;15212;48.830;8.730;2023-06-22T10:02:08;28.30;99.90
27848;DHT22;15212;48.830;8.730;2023-06-22T10:04:36;28.30;99.90
27848;DHT22;15212;48.830;8.730;2023-06-22T10:07:06;28.40;99.90
27848;DHT22;15212;48.830;8.730;2023-06-22T10:09:35;28.40;99.90
27848;DHT22;15212;48.830;8.730;2023-06-22T10:12:03;28.40;99.90
27848;DHT22;15212;48.830;8.730;2023-06-22T10:14:32;28.50;99.90
27848;DHT22;15212;48.830;8.730;2023-06-22T10:17:00;28.50;99.90
27848;DHT22;15212;48.830;8.730;2023-06-22T10:19:29;28.50;99.90
27848;DHT22;15212;48.830;8.730;2023-06-22T10:21:58;28.50;99.90
27848;DHT22;15212;48.830;8.730;2023-06-22T10:24:26;28.50;99.90
27848;DHT22;15212;48.830;8.730;2023-06-22T10:26:54;28.50;99.90
27848;DHT22;15212;48.830;8.730;2023-06-22T10:29:23;28.60;99.90
27848;DHT22;15212;48.830;8.730;2023-06-22T10:31:51;28.60;99.90
27848;DHT22;15212;48.830;8.730;2023-06-22T10:34:19;28.60;99.90
27848;DHT22;15212;48.830;8.730;2023-06-22T10:36:48;28.60;99.90
27848;DHT22;15212;48.830;8.730;2023-06-22T10:39:16;28.60;99.90
27848;DHT22;15212;48.830;8.730;2023-06-22T10:41:45;28.60;99.90
27848;DHT22;15212;48.830;8.730;2023-06-22T10:44:13;28.50;99.90
27848;DHT22;15212;48.830;8.730;2023-06-22T10:46:41;28.60;99.90
27848;DHT22;15212;48.830;8.730;2023-06-22T10:49:10;28.50;99.90
27848;DHT22;15212;48.830;8.730;2023-06-22T10:51:38;28.40;99.90
27848;DHT22;15212;48.830;8.730;2023-06-22T10:54:07;28.50;99.90
27848;DHT22;15212;48.830;8.730;2023-06-22T10:56:36;28.50;99.90
27848;DHT22;15212;48.830;8.730;2023-06-22T10:59:04;28.70;99.90
27848;DHT22;15212;48.830;8.730;2023-06-22T11:01:33;28.80;99.90
27848;DHT22;15212;48.830;8.730;2023-06-22T11:04:01;28.90;99.90
27848;DHT22;15212;48.830;8.730;2023-06-22T11:06:30;29.10;99.90
27848;DHT22;15212;48.830;8.730;2023-06-22T11:08:59;29.30;99.90
27848;DHT22;15212;48.830;8.730;2023-06-22T11:11:27;29.50;99.90
27848;DHT22;15212;48.830;8.730;2023-06-22T11:13:56;29.70;99.90
27848;DHT22;15212;48.830;8.730;2023-06-22T11:16:24;29.80;99.90
27848;DHT22;15212;48.830;8.730;2023-06-22T11:18:52;29.80;99.90
27848;DHT22;15212;48.830;8.730;2023-06-22T11:21:21;29.80;99.90
27848;DHT22;15212;48.830;8.730;2023-06-22T11:23:49;29.70;99.90
27848;DHT22;15212;48.830;8.730;2023-06-22T11:26:17;29.50;99.90
27848;DHT22;15212;48.830;8.730;2023-06-22T11:28:47;29.30;99.90
27848;DHT22;15212;48.830;8.730;2023-06-22T11:31:16;29.20;99.90
27848;DHT22;15212;48.830;8.730;2023-06-22T11:33:44;29.00;99.90
27848;DHT22;15212;48.830;8.730;2023-06-22T11:36:15;28.90;99.90
27848;DHT22;15212;48.830;8.730;2023-06-22T11:38:44;28.90;99.90
27848;DHT22;15212;48.830;8.730;2023-06-22T11:41:12;28.70;99.90
27848;DHT22;15212;48.830;8.730;2023-06-22T11:43:40;28.70;99.90
27848;DHT22;15212;48.830;8.730;2023-06-22T11:46:09;28.70;99.90
27848;DHT22;15212;48.830;8.730;2023-06-22T11:48:37;28.60;99.90
27848;DHT22;15212;48.830;8.730;2023-06-22T11:51:06;28.50;99.90
27848;DHT22;15212;48.830;8.730;2023-06-22T11:53:34;28.40;99.90
27848;DHT22;15212;48.830;8.730;2023-06-22T11:56:03;28.20;99.90
27848;DHT22;15212;48.830;8.730;2023-06-22T11:58:31;28.00;99.90
27848;DHT22;15212;48.830;8.730;2023-06-22T12:00:59;27.90;99.90
27848;DHT22;15212;48.830;8.730;2023-06-22T12:03:28;27.80;99.90
27848;DHT22;15212;48.830;8.730;2023-06-22T12:05:56;27.70;99.90
27848;DHT22;15212;48.830;8.730;2023-06-22T12:08:25;27.60;99.90
27848;DHT22;15212;48.830;8.730;2023-06-22T12:10:54;27.50;99.90
27848;DHT22;15212;48.830;8.730;2023-06-22T12:13:22;27.50;99.90
27848;DHT22;15212;48.830;8.730;2023-06-22T12:15:50;27.50;99.90
27848;DHT22;15212;48.830;8.730;2023-06-22T12:18:19;27.50;99.90
27848;DHT22;15212;48.830;8.730;2023-06-22T12:20:48;27.50;99.90
27848;DHT22;15212;48.830;8.730;2023-06-22T12:23:17;27.60;99.90
27848;DHT22;15212;48.830;8.730;2023-06-22T12:25:46;27.80;99.90
27848;DHT22;15212;48.830;8.730;2023-06-22T12:28:15;27.90;99.90
27848;DHT22;15212;48.830;8.730;2023-06-22T12:30:43;28.10;99.90
27848;DHT22;15212;48.830;8.730;2023-06-22T12:33:11;28.20;99.90
27848;DHT22;15212;48.830;8.730;2023-06-22T12:35:40;28.40;99.90
27848;DHT22;15212;48.830;8.730;2023-06-22T12:38:09;28.60;99.90
27848;DHT22;15212;48.830;8.730;2023-06-22T12:40:38;28.90;99.90
27848;DHT22;15212;48.830;8.730;2023-06-22T12:43:06;29.00;99.90
27848;DHT22;15212;48.830;8.730;2023-06-22T12:45:35;29.10;99.90
27848;DHT22;15212;48.830;8.730;2023-06-22T12:48:03;29.30;99.90
27848;DHT22;15212;48.830;8.730;2023-06-22T12:50:32;29.40;99.90
27848;DHT22;15212;48.830;8.730;2023-06-22T12:53:00;29.50;99.90
27848;DHT22;15212;48.830;8.730;2023-06-22T12:55:30;29.60;99.90
27848;DHT22;15212;48.830;8.730;2023-06-22T12:57:59;29.80;99.90
27848;DHT22;15212;48.830;8.730;2023-06-22T13:00:27;29.90;99.90
27848;DHT22;15212;48.830;8.730;2023-06-22T13:02:56;30.00;99.90
27848;DHT22;15212;48.830;8.730;2023-06-22T13:05:24;30.10;99.90
27848;DHT22;15212;48.830;8.730;2023-06-22T13:07:53;30.30;99.90
27848;DHT22;15212;48.830;8.730;2023-06-22T13:10:21;30.30;99.90
27848;DHT22;15212;48.830;8.730;2023-06-22T13:12:50;30.20;99.90
27848;DHT22;15212;48.830;8.730;2023-06-22T13:15:20;30.30;99.90
27848;DHT22;15212;48.830;8.730;2023-06-22T13:17:48;30.30;99.90
27848;DHT22;15212;48.830;8.730;2023-06-22T13:20:16;30.30;99.90
27848;DHT22;15212;48.830;8.730;2023-06-22T13:22:45;30.20;99.90
27848;DHT22;15212;48.830;8.730;2023-06-22T13:25:13;30.20;99.90
27848;DHT22;15212;48.830;8.730;2023-06-22T13:27:43;30.00;99.90
27848;DHT22;15212;48.830;8.730;2023-06-22T13:30:12;29.90;99.90
27848;DHT22;15212;48.830;8.730;2023-06-22T13:32:42;29.90;99.90
27848;DHT22;15212;48.830;8.730;2023-06-22T13:35:11;30.00;99.90
27848;DHT22;15212;48.830;8.730;2023-06-22T13:37:40;30.10;99.90
27848;DHT22;15212;48.830;8.730;2023-06-22T13:40:08;30.20;99.90
27848;DHT22;15212;48.830;8.730;2023-06-22T13:42:37;30.30;99.90
27848;DHT22;15212;48.830;8.730;2023-06-22T13:45:07;30.30;99.90
27848;DHT22;15212;48.830;8.730;2023-06-22T13:47:36;30.30;99.90
27848;DHT22;15212;48.830;8.730;2023-06-22T13:50:04;30.30;98.90
27848;DHT22;15212;48.830;8.730;2023-06-22T13:52:33;30.40;98.30
27848;DHT22;15212;48.830;8.730;2023-06-22T13:55:03;30.40;97.70
27848;DHT22;15212;48.830;8.730;2023-06-22T13:57:41;30.50;98.60
27848;DHT22;15212;48.830;8.730;2023-06-22T14:00:14;30.60;98.30
27848;DHT22;15212;48.830;8.730;2023-06-22T14:02:42;30.60;97.80
27848;DHT22;15212;48.830;8.730;2023-06-22T14:05:11;30.60;97.20
27848;DHT22;15212;48.830;8.730;2023-06-22T14:07:39;30.50;96.50
27848;DHT22;15212;48.830;8.730;2023-06-22T14:10:08;30.20;94.60
27848;DHT22;15212;48.830;8.730;2023-06-22T14:12:36;30.00;93.90
27848;DHT22;15212;48.830;8.730;2023-06-22T14:15:05;29.70;94.20
27848;DHT22;15212;48.830;8.730;2023-06-22T14:17:34;29.60;94.00
27848;DHT22;15212;48.830;8.730;2023-06-22T14:20:02;29.50;94.20
27848;DHT22;15212;48.830;8.730;2023-06-22T14:22:32;29.50;94.50
27848;DHT22;15212;48.830;8.730;2023-06-22T14:25:02;29.30;94.50
27848;DHT22;15212;48.830;8.730;2023-06-22T14:27:31;29.30;94.30
27848;DHT22;15212;48.830;8.730;2023-06-22T14:30:00;29.40;93.90
27848;DHT22;15212;48.830;8.730;2023-06-22T14:32:28;29.40;94.00
27848;DHT22;15212;48.830;8.730;2023-06-22T14:34:57;29.40;93.90
27848;DHT22;15212;48.830;8.730;2023-06-22T14:37:25;29.50;93.90
27848;DHT22;15212;48.830;8.730;2023-06-22T14:39:53;29.40;94.40
27848;DHT22;15212;48.830;8.730;2023-06-22T14:42:22;29.50;94.70
27848;DHT22;15212;48.830;8.730;2023-06-22T14:44:57;29.40;95.90
27848;DHT22;15212;48.830;8.730;2023-06-22T14:47:26;29.30;94.90
27848;DHT22;15212;48.830;8.730;2023-06-22T14:50:05;29.30;95.50
27848;DHT22;15212;48.830;8.730;2023-06-22T14:52:37;29.20;95.20
27848;DHT22;15212;48.830;8.730;2023-06-22T14:55:06;29.10;94.70
27848;DHT22;15212;48.830;8.730;2023-06-22T14:57:35;29.00;94.40
27848;DHT22;15212;48.830;8.730;2023-06-22T15:00:12;28.90;94.80
27848;DHT22;15212;48.830;8.730;2023-06-22T15:02:50;28.90;95.10
27848;DHT22;15212;48.830;8.730;2023-06-22T15:05:19;28.90;95.60
27848;DHT22;15212;48.830;8.730;2023-06-22T15:07:53;28.90;99.90
27848;DHT22;15212;48.830;8.730;2023-06-22T15:10:28;29.00;99.90
27848;DHT22;15212;48.830;8.730;2023-06-22T15:12:59;28.90;99.90
27848;DHT22;15212;48.830;8.730;2023-06-22T15:15:32;28.70;99.90
27848;DHT22;15212;48.830;8.730;2023-06-22T15:18:07;28.70;99.90
27848;DHT22;15212;48.830;8.730;2023-06-22T15:20:37;28.60;99.90
27848;DHT22;15212;48.830;8.730;2023-06-22T15:23:10;28.50;99.90
27848;DHT22;15212;48.830;8.730;2023-06-22T15:25:42;28.50;99.90
27848;DHT22;15212;48.830;8.730;2023-06-22T15:28:16;28.70;99.90
27848;DHT22;15212;48.830;8.730;2023-06-22T15:30:45;28.80;99.90
27848;DHT22;15212;48.830;8.730;2023-06-22T15:33:26;28.90;99.90
27848;DHT22;15212;48.830;8.730;2023-06-22T15:35:57;28.90;99.90
27848;DHT22;15212;48.830;8.730;2023-06-22T15:38:28;28.90;99.90
27848;DHT22;15212;48.830;8.730;2023-06-22T15:40:57;28.90;99.90
27848;DHT22;15212;48.830;8.730;2023-06-22T15:43:25;28.80;99.90
27848;DHT22;15212;48.830;8.730;2023-06-22T15:45:54;28.90;99.90
27848;DHT22;15212;48.830;8.730;2023-06-22T15:48:22;28.80;99.90
27848;DHT22;15212;48.830;8.730;2023-06-22T15:50:51;28.70;99.90
27848;DHT22;15212;48.830;8.730;2023-06-22T15:53:19;28.60;99.90